createdAt,value
2023-03-20T00:01:20.167Z,7.60
2023-03-20T00:03:47.866Z,7.60
2023-03-20T00:06:18.904Z,7.60
2023-03-20T00:08:47.753Z,7.60
2023-03-20T00:11:37.162Z,7.60
2023-03-20T00:14:10.443Z,7.60
2023-03-20T00:16:40.644Z,7.60
2023-03-20T00:19:26.171Z,7.60
2023-03-20T00:21:55.120Z,7.60
2023-03-20T00:24:23.600Z,7.60
2023-03-20T00:26:51.820Z,7.60
2023-03-20T00:29:26.348Z,7.50
2023-03-20T00:31:55.104Z,7.50
2023-03-20T00:34:25.906Z,7.50
2023-03-20T00:36:54.006Z,7.50
2023-03-20T00:39:22.246Z,7.50
2023-03-20T00:41:56.154Z,7.60
2023-03-20T00:44:34.210Z,7.50
2023-03-20T00:47:13.509Z,7.50
2023-03-20T00:49:40.783Z,7.50
2023-03-20T00:52:09.151Z,7.50
2023-03-20T00:54:36.395Z,7.50
2023-03-20T00:57:12.657Z,7.50
2023-03-20T00:59:52.773Z,7.50
2023-03-20T01:02:21.974Z,7.40
2023-03-20T01:04:48.993Z,7.40
2023-03-20T01:07:16.469Z,7.40
2023-03-20T01:09:43.415Z,7.40
2023-03-20T01:12:14.926Z,7.40
2023-03-20T01:14:43.515Z,7.40
2023-03-20T01:17:18.854Z,7.40
2023-03-20T01:19:45.949Z,7.30
2023-03-20T01:22:14.336Z,7.40
2023-03-20T01:24:42.289Z,7.30
2023-03-20T01:27:15.645Z,7.40
2023-03-20T01:29:43.384Z,7.40
2023-03-20T01:32:16.974Z,7.30
2023-03-20T01:34:44.418Z,7.30
2023-03-20T01:37:34.869Z,7.20
2023-03-20T01:40:02.079Z,7.30
2023-03-20T01:42:29.499Z,7.20
2023-03-20T01:44:56.520Z,7.30
2023-03-20T01:47:25.005Z,7.30
2023-03-20T01:50:23.242Z,7.30
2023-03-20T01:52:59.619Z,7.20
2023-03-20T01:55:26.659Z,7.10
2023-03-20T01:57:56.874Z,7.00
2023-03-20T02:00:24.057Z,7.00
2023-03-20T02:02:51.427Z,6.90
2023-03-20T02:05:20.994Z,6.80
2023-03-20T02:07:56.183Z,6.80
2023-03-20T02:10:23.478Z,6.80
2023-03-20T02:12:51.884Z,6.80
2023-03-20T02:15:19.012Z,6.70
2023-03-20T02:17:46.231Z,6.60
2023-03-20T02:20:22.847Z,6.60
2023-03-20T02:22:55.813Z,6.50
2023-03-20T02:25:51.458Z,6.50
2023-03-20T02:28:39.270Z,6.40
2023-03-20T02:31:18.210Z,6.40
2023-03-20T02:33:59.665Z,6.40
2023-03-20T02:36:35.841Z,6.30
2023-03-20T02:39:21.654Z,6.30
2023-03-20T02:41:51.588Z,6.30
2023-03-20T02:44:38.130Z,6.20
2023-03-20T02:47:07.854Z,6.20
2023-03-20T02:50:27.381Z,6.10
2023-03-20T02:53:32.978Z,6.10
2023-03-20T02:56:06.318Z,6.00
2023-03-20T02:58:45.551Z,6.00
2023-03-20T03:01:26.521Z,5.90
2023-03-20T03:03:58.753Z,5.90
2023-03-20T03:06:32.750Z,5.90
2023-03-20T03:09:12.202Z,5.80
2023-03-20T03:11:44.754Z,5.80
2023-03-20T03:14:35.824Z,5.70
2023-03-20T03:17:06.647Z,5.70
2023-03-20T03:19:36.393Z,5.60
2023-03-20T03:22:04.862Z,5.60
2023-03-20T03:24:43.122Z,5.60
2023-03-20T03:27:17.468Z,5.60
2023-03-20T03:29:51.185Z,5.60
2023-03-20T03:32:54.921Z,5.60
2023-03-20T03:35:23.585Z,5.60
2023-03-20T03:38:04.117Z,5.60
2023-03-20T03:40:46.164Z,5.50
2023-03-20T03:43:23.988Z,5.50
2023-03-20T03:46:14.364Z,5.40
2023-03-20T03:48:55.510Z,5.40
2023-03-20T03:51:26.187Z,5.40
2023-03-20T03:53:59.641Z,5.40
2023-03-20T03:56:29.787Z,5.40
2023-03-20T03:59:08.735Z,5.30
2023-03-20T04:01:38.532Z,5.30
2023-03-20T04:04:08.878Z,5.30
2023-03-20T04:06:36.238Z,5.30
2023-03-20T04:09:03.150Z,5.30
2023-03-20T04:11:30.083Z,5.30
2023-03-20T04:13:56.977Z,5.30
2023-03-20T04:16:25.874Z,5.20
2023-03-20T04:18:53.255Z,5.20
2023-03-20T04:21:20.573Z,5.20
2023-03-20T04:23:47.543Z,5.20
2023-03-20T04:26:14.506Z,5.20
2023-03-20T04:28:41.434Z,5.20
2023-03-20T04:31:08.410Z,5.20
2023-03-20T04:33:36.042Z,5.10
2023-03-20T04:36:03.268Z,5.10
2023-03-20T04:38:30.432Z,5.10
2023-03-20T04:40:57.370Z,5.10
2023-03-20T04:43:24.345Z,5.10
2023-03-20T04:45:51.530Z,5.10
2023-03-20T04:48:18.755Z,5.10
2023-03-20T04:50:48.887Z,5.10
2023-03-20T04:53:16.398Z,5.10
2023-03-20T04:55:48.092Z,5.00
2023-03-20T04:58:15.573Z,5.00
2023-03-20T05:00:43.576Z,4.80
2023-03-20T05:03:11.170Z,4.80
2023-03-20T05:05:38.697Z,4.80
2023-03-20T05:08:06.597Z,4.80
2023-03-20T05:10:33.826Z,4.80
2023-03-20T05:13:00.724Z,4.70
2023-03-20T05:15:27.824Z,4.70
2023-03-20T05:17:55.048Z,4.70
2023-03-20T05:20:22.163Z,4.60
2023-03-20T05:22:51.128Z,4.60
2023-03-20T05:25:18.382Z,4.60
2023-03-20T05:27:46.409Z,4.60
2023-03-20T05:30:14.843Z,4.60
2023-03-20T05:32:43.798Z,4.60
2023-03-20T05:35:11.102Z,4.60
2023-03-20T05:37:39.590Z,4.50
2023-03-20T05:40:07.758Z,4.40
2023-03-20T05:42:35.128Z,4.40
2023-03-20T05:45:02.035Z,4.40
2023-03-20T05:47:28.915Z,4.40
2023-03-20T05:49:55.839Z,4.40
2023-03-20T05:52:23.841Z,4.30
2023-03-20T05:54:51.267Z,4.30
2023-03-20T05:57:18.201Z,4.40
2023-03-20T05:59:45.502Z,4.50
2023-03-20T06:02:12.759Z,4.50
2023-03-20T06:04:39.680Z,4.60
2023-03-20T06:07:06.806Z,4.60
2023-03-20T06:09:33.722Z,4.70
2023-03-20T06:12:00.725Z,4.70
2023-03-20T06:14:27.847Z,4.80
2023-03-20T06:16:55.151Z,4.80
2023-03-20T06:19:22.025Z,4.90
2023-03-20T06:21:50.517Z,4.80
2023-03-20T06:24:17.901Z,4.80
2023-03-20T06:26:44.978Z,4.80
2023-03-20T06:29:11.924Z,4.80
2023-03-20T06:31:38.816Z,4.80
2023-03-20T06:34:06.010Z,4.80
2023-03-20T06:36:32.995Z,4.80
2023-03-20T06:38:59.990Z,4.80
2023-03-20T06:41:34.196Z,4.90
2023-03-20T06:44:02.732Z,5.00
2023-03-20T06:46:29.750Z,5.10
2023-03-20T06:48:56.781Z,5.10
2023-03-20T06:51:23.775Z,5.00
2023-03-20T06:53:51.226Z,5.10
2023-03-20T06:56:18.468Z,5.20
2023-03-20T06:58:46.048Z,5.20
2023-03-20T07:01:17.314Z,5.10
2023-03-20T07:03:45.167Z,5.10
2023-03-20T07:06:13.694Z,5.00
2023-03-20T07:08:40.741Z,5.10
2023-03-20T07:11:11.152Z,5.10
2023-03-20T07:13:38.225Z,5.10
2023-03-20T07:16:05.585Z,5.10
2023-03-20T07:18:32.955Z,5.20
2023-03-20T07:21:03.179Z,5.30
2023-03-20T07:23:30.884Z,5.30
2023-03-20T07:25:58.890Z,5.40
2023-03-20T07:28:26.107Z,5.50
2023-03-20T07:30:53.027Z,5.60
2023-03-20T07:33:21.142Z,5.70
2023-03-20T07:35:55.125Z,5.70
2023-03-20T07:38:22.633Z,5.60
2023-03-20T07:40:50.214Z,5.50
2023-03-20T07:43:17.756Z,5.50
2023-03-20T07:45:44.973Z,5.50
2023-03-20T07:48:20.702Z,5.60
2023-03-20T07:50:47.586Z,5.60
2023-03-20T07:53:14.487Z,5.70
2023-03-20T07:55:41.590Z,5.70
2023-03-20T07:58:09.011Z,5.60
2023-03-20T08:00:36.440Z,5.70
2023-03-20T08:03:03.647Z,5.80
2023-03-20T08:05:30.824Z,5.80
2023-03-20T08:07:57.895Z,5.90
2023-03-20T08:10:28.512Z,6.00
2023-03-20T08:12:56.413Z,6.00
2023-03-20T08:15:23.899Z,6.10
2023-03-20T08:17:50.792Z,6.20
2023-03-20T08:20:17.880Z,6.30
2023-03-20T08:22:50.045Z,6.30
2023-03-20T08:25:17.319Z,6.30
2023-03-20T08:27:44.944Z,6.10
2023-03-20T08:30:14.080Z,6.00
2023-03-20T08:32:41.645Z,6.10
2023-03-20T08:35:19.044Z,6.20
2023-03-20T08:37:52.934Z,6.20
2023-03-20T08:40:20.584Z,6.40
2023-03-20T08:42:47.518Z,6.50
2023-03-20T08:45:14.599Z,6.50
2023-03-20T08:47:41.714Z,6.60
2023-03-20T08:50:09.905Z,6.70
2023-03-20T08:52:37.122Z,6.60
2023-03-20T08:55:04.848Z,6.60
2023-03-20T08:57:31.771Z,6.70
2023-03-20T08:59:58.730Z,6.60
2023-03-20T09:02:25.784Z,6.60
2023-03-20T09:04:52.791Z,6.70
2023-03-20T09:07:19.669Z,6.80
2023-03-20T09:09:49.573Z,7.00
2023-03-20T09:12:16.848Z,7.00
2023-03-20T09:14:46.011Z,7.10
2023-03-20T09:17:12.953Z,7.20
2023-03-20T09:19:42.636Z,7.30
2023-03-20T09:22:09.573Z,7.30
2023-03-20T09:24:37.337Z,7.40
2023-03-20T09:27:04.444Z,7.50
2023-03-20T09:29:31.452Z,7.60
2023-03-20T09:31:58.465Z,7.60
2023-03-20T09:34:25.491Z,7.70
2023-03-20T09:36:52.599Z,7.70
2023-03-20T09:39:19.472Z,7.80
2023-03-20T09:41:57.163Z,7.80
2023-03-20T09:44:36.822Z,7.90
2023-03-20T09:47:20.386Z,8.10
2023-03-20T09:50:26.866Z,8.20
2023-03-20T09:53:11.638Z,8.30
2023-03-20T09:55:45.015Z,8.40
2023-03-20T09:58:28.646Z,8.50
2023-03-20T10:00:58.927Z,8.60
2023-03-20T10:03:39.184Z,8.70
2023-03-20T10:06:18.037Z,8.80
2023-03-20T10:08:46.708Z,8.90
2023-03-20T10:11:41.693Z,8.80
2023-03-20T10:14:31.850Z,8.80
2023-03-20T10:17:16.885Z,8.80
2023-03-20T10:19:45.624Z,8.90
2023-03-20T10:22:27.198Z,9.00
2023-03-20T10:25:20.264Z,9.00
2023-03-20T10:27:57.412Z,9.10
2023-03-20T10:30:51.008Z,9.00
2023-03-20T10:33:44.139Z,8.90
2023-03-20T10:36:36.144Z,9.10
2023-03-20T10:39:40.694Z,9.00
2023-03-20T10:42:25.836Z,8.90
2023-03-20T10:45:06.361Z,8.90
2023-03-20T10:47:39.256Z,9.00
2023-03-20T10:50:11.985Z,9.00
2023-03-20T10:52:41.690Z,9.00
2023-03-20T10:55:15.831Z,9.00
2023-03-20T10:57:48.553Z,8.90
2023-03-20T11:00:24.621Z,8.90
2023-03-20T11:02:51.561Z,8.90
2023-03-20T11:05:26.884Z,8.80
2023-03-20T11:08:06.529Z,8.90
2023-03-20T11:10:36.823Z,8.80
2023-03-20T11:13:19.987Z,8.60
2023-03-20T11:15:47.337Z,8.60
2023-03-20T11:18:16.060Z,8.60
2023-03-20T11:20:52.993Z,8.70
2023-03-20T11:23:26.209Z,8.50
2023-03-20T11:25:58.634Z,8.50
2023-03-20T11:28:33.319Z,8.50
2023-03-20T11:31:26.675Z,8.60
2023-03-20T11:34:17.300Z,8.70
2023-03-20T11:37:10.442Z,8.80
2023-03-20T11:39:40.196Z,8.80
2023-03-20T11:42:26.781Z,8.80
2023-03-20T11:45:03.487Z,9.00
2023-03-20T11:47:34.775Z,9.30
2023-03-20T11:50:05.727Z,9.60
2023-03-20T11:52:37.691Z,9.80
2023-03-20T11:55:24.498Z,10.00
2023-03-20T11:57:51.753Z,10.00
2023-03-20T12:00:24.859Z,10.00
2023-03-20T12:02:52.056Z,10.00
2023-03-20T12:05:23.686Z,9.80
2023-03-20T12:07:52.343Z,10.00
2023-03-20T12:10:22.318Z,10.60
2023-03-20T12:12:58.876Z,11.20
2023-03-20T12:15:33.079Z,11.20
2023-03-20T12:18:05.824Z,11.30
2023-03-20T12:20:39.415Z,11.40
2023-03-20T12:23:09.450Z,11.40
2023-03-20T12:25:39.182Z,11.00
2023-03-20T12:28:20.664Z,10.90
2023-03-20T12:31:06.130Z,11.00
2023-03-20T12:34:25.476Z,11.20
2023-03-20T12:36:53.261Z,11.10
2023-03-20T12:39:38.764Z,11.10
2023-03-20T12:42:14.683Z,11.00
2023-03-20T12:45:12.323Z,10.90
2023-03-20T12:48:02.295Z,10.80
2023-03-20T12:50:42.955Z,10.60
2023-03-20T12:53:26.648Z,10.50
2023-03-20T12:56:31.989Z,10.50
2023-03-20T12:59:22.674Z,10.30
2023-03-20T13:02:04.042Z,10.00
2023-03-20T13:05:12.340Z,10.10
2023-03-20T13:07:57.700Z,10.00
2023-03-20T13:10:54.461Z,10.10
2023-03-20T13:13:28.321Z,10.20
2023-03-20T13:16:25.894Z,9.90
2023-03-20T13:19:14.411Z,9.90
2023-03-20T13:21:56.867Z,9.90
2023-03-20T13:24:35.750Z,9.90
2023-03-20T13:27:14.404Z,9.60
2023-03-20T13:30:09.651Z,9.70
2023-03-20T13:32:42.509Z,9.70
2023-03-20T13:35:24.119Z,9.80
2023-03-20T13:38:09.781Z,9.70
2023-03-20T13:40:41.691Z,9.70
2023-03-20T13:43:21.377Z,9.50
2023-03-20T13:45:49.867Z,9.50
2023-03-20T13:48:36.629Z,9.40
2023-03-20T13:51:15.540Z,9.40
2023-03-20T13:54:16.875Z,9.30
2023-03-20T13:57:02.837Z,9.30
2023-03-20T13:59:51.102Z,9.10
2023-03-20T14:02:50.572Z,9.10
2023-03-20T14:05:23.304Z,9.00
2023-03-20T14:07:56.342Z,9.00
2023-03-20T14:10:23.402Z,8.80
2023-03-20T14:12:55.836Z,8.70
2023-03-20T14:15:31.577Z,8.80
2023-03-20T14:18:03.296Z,8.70
2023-03-20T14:20:34.843Z,8.60
2023-03-20T14:23:02.376Z,8.60
2023-03-20T14:25:40.403Z,8.70
2023-03-20T14:28:10.304Z,8.80
2023-03-20T14:30:39.409Z,8.80
2023-03-20T14:33:16.005Z,9.00
2023-03-20T14:35:51.513Z,9.30
2023-03-20T14:38:27.662Z,9.20
2023-03-20T14:41:02.386Z,9.20
2023-03-20T14:44:00.869Z,9.30
2023-03-20T14:46:43.154Z,9.30
2023-03-20T14:49:48.146Z,9.30
2023-03-20T14:52:15.381Z,9.20
2023-03-20T14:54:42.328Z,9.10
2023-03-20T14:57:27.697Z,9.10
2023-03-20T14:59:55.311Z,9.10
2023-03-20T15:02:28.693Z,9.00
2023-03-20T15:04:56.451Z,9.00
2023-03-20T15:07:25.325Z,8.80
2023-03-20T15:09:55.697Z,8.80
2023-03-20T15:12:31.502Z,8.90
2023-03-20T15:15:01.434Z,8.90
2023-03-20T15:17:37.572Z,8.90
2023-03-20T15:20:31.932Z,8.70
2023-03-20T15:23:00.991Z,8.80
2023-03-20T15:25:39.618Z,8.60
2023-03-20T15:28:08.470Z,8.70
2023-03-20T15:30:39.415Z,8.70
2023-03-20T15:33:08.594Z,8.70
2023-03-20T15:35:35.874Z,8.60
2023-03-20T15:38:07.679Z,8.60
2023-03-20T15:40:50.110Z,8.60
2023-03-20T15:43:26.797Z,8.60
2023-03-20T15:46:14.151Z,8.50
2023-03-20T15:48:46.974Z,8.50
2023-03-20T15:51:14.304Z,8.60
2023-03-20T15:53:45.269Z,8.50
2023-03-20T15:56:18.576Z,8.50
2023-03-20T15:58:49.535Z,8.40
2023-03-20T16:01:19.960Z,8.40
2023-03-20T16:03:48.297Z,8.40
2023-03-20T16:06:22.312Z,8.40
2023-03-20T16:09:06.760Z,8.30
2023-03-20T16:11:39.444Z,8.40
2023-03-20T16:14:10.969Z,8.30
2023-03-20T16:16:38.456Z,8.40
2023-03-20T16:19:08.545Z,8.30
2023-03-20T16:21:39.533Z,8.30
2023-03-20T16:24:15.892Z,8.40
2023-03-20T16:26:45.920Z,8.20
2023-03-20T16:29:14.877Z,8.10
2023-03-20T16:31:53.159Z,8.20
2023-03-20T16:34:24.627Z,8.20
2023-03-20T16:36:58.053Z,8.20
2023-03-20T16:39:28.174Z,8.10
2023-03-20T16:42:29.071Z,8.20
2023-03-20T16:44:57.996Z,8.10
2023-03-20T16:47:38.491Z,8.10
2023-03-20T16:50:17.732Z,8.10
2023-03-20T16:52:56.102Z,8.10
2023-03-20T16:55:27.249Z,8.10
2023-03-20T16:57:58.138Z,8.00
2023-03-20T17:00:47.801Z,8.00
2023-03-20T17:03:20.290Z,8.00
2023-03-20T17:05:53.563Z,8.00
2023-03-20T17:08:29.634Z,8.10
2023-03-20T17:10:59.560Z,8.10
2023-03-20T17:13:26.486Z,8.10
2023-03-20T17:15:54.378Z,8.10
2023-03-20T17:18:21.238Z,8.00
2023-03-20T17:20:48.115Z,8.10
2023-03-20T17:23:19.446Z,8.00
2023-03-20T17:25:47.319Z,8.00
2023-03-20T17:28:24.482Z,8.00
2023-03-20T17:30:52.054Z,8.00
2023-03-20T17:33:21.203Z,8.00
2023-03-20T17:35:48.356Z,7.90
2023-03-20T17:38:22.816Z,8.00
2023-03-20T17:40:51.194Z,8.00
2023-03-20T17:43:19.983Z,8.00
2023-03-20T17:45:47.832Z,7.90
2023-03-20T17:48:18.005Z,7.90
2023-03-20T17:50:46.677Z,7.80
2023-03-20T17:53:25.055Z,7.80
2023-03-20T17:55:52.924Z,7.70
2023-03-20T17:58:22.769Z,7.80
2023-03-20T18:00:51.360Z,7.80
2023-03-20T18:03:18.982Z,7.80
2023-03-20T18:05:48.559Z,7.80
2023-03-20T18:08:21.397Z,7.80
2023-03-20T18:10:50.026Z,7.80
2023-03-20T18:13:21.140Z,7.80
2023-03-20T18:15:49.845Z,7.70
2023-03-20T18:18:17.029Z,7.80
2023-03-20T18:20:45.648Z,7.70
2023-03-20T18:23:13.212Z,7.70
2023-03-20T18:25:40.530Z,7.70
2023-03-20T18:28:12.467Z,7.70
2023-03-20T18:30:41.494Z,7.70
2023-03-20T18:33:08.855Z,7.60
2023-03-20T18:35:36.599Z,7.60
2023-03-20T18:38:04.189Z,7.70
2023-03-20T18:40:36.674Z,7.60
2023-03-20T18:43:04.315Z,7.60
2023-03-20T18:45:31.921Z,7.60
2023-03-20T18:47:59.706Z,7.70
2023-03-20T18:50:31.200Z,7.70
2023-03-20T18:52:59.572Z,7.70
2023-03-20T18:55:28.766Z,7.70
2023-03-20T18:57:56.321Z,7.70
2023-03-20T19:00:25.637Z,7.70
2023-03-20T19:02:55.679Z,7.70
2023-03-20T19:05:25.669Z,7.80
2023-03-20T19:07:53.918Z,7.70
2023-03-20T19:10:43.862Z,7.70
2023-03-20T19:13:15.150Z,7.70
2023-03-20T19:15:42.826Z,7.70
2023-03-20T19:18:21.741Z,7.80
2023-03-20T19:20:53.527Z,7.70
2023-03-20T19:23:21.769Z,7.70
2023-03-20T19:25:51.615Z,7.70
2023-03-20T19:28:23.164Z,7.70
2023-03-20T19:30:56.185Z,7.70
2023-03-20T19:33:23.947Z,7.80
2023-03-20T19:36:06.929Z,7.70
2023-03-20T19:38:34.623Z,7.70
2023-03-20T19:41:03.811Z,7.80
2023-03-20T19:43:32.368Z,7.80
2023-03-20T19:45:59.605Z,7.70
2023-03-20T19:48:46.505Z,7.70
2023-03-20T19:51:22.882Z,7.70
2023-03-20T19:53:50.606Z,7.70
2023-03-20T19:56:19.288Z,7.70
2023-03-20T19:58:46.718Z,7.70
2023-03-20T20:01:19.441Z,7.80
2023-03-20T20:03:47.447Z,7.70
2023-03-20T20:06:14.710Z,7.70
2023-03-20T20:08:48.297Z,7.80
2023-03-20T20:11:17.532Z,7.80
2023-03-20T20:14:07.100Z,7.80
2023-03-20T20:16:34.855Z,7.80
2023-03-20T20:19:02.541Z,7.70
2023-03-20T20:24:16.460Z,7.70
2023-03-20T20:26:53.308Z,7.70
2023-03-20T20:29:22.104Z,7.70
2023-03-20T20:31:49.565Z,7.80
2023-03-20T20:39:50.510Z,7.70
2023-03-20T20:42:17.661Z,7.80
2023-03-20T20:44:44.887Z,7.70
2023-03-20T20:47:12.518Z,7.80
2023-03-20T20:49:39.650Z,7.80
2023-03-20T20:52:07.546Z,7.80
2023-03-20T20:54:34.954Z,7.80
2023-03-20T20:57:02.531Z,7.80
2023-03-20T20:59:29.533Z,7.90
2023-03-20T21:01:56.609Z,7.80
2023-03-20T21:04:24.026Z,7.80
2023-03-20T21:07:08.746Z,7.80
2023-03-20T21:09:36.812Z,7.70
2023-03-20T21:12:04.466Z,7.80
2023-03-20T21:14:31.697Z,7.80
2023-03-20T21:17:01.627Z,7.70
2023-03-20T21:19:37.244Z,7.70
2023-03-20T21:22:05.625Z,7.70
2023-03-20T21:24:34.690Z,7.80
2023-03-20T21:27:05.263Z,7.80
2023-03-20T21:29:32.216Z,7.80
2023-03-20T21:31:59.162Z,7.70
2023-03-20T21:34:26.496Z,7.80
2023-03-20T21:36:53.993Z,7.80
2023-03-20T21:39:21.204Z,7.80
2023-03-20T21:41:48.147Z,7.70
2023-03-20T21:44:24.589Z,7.80
2023-03-20T21:48:04.238Z,7.70
2023-03-20T21:51:20.678Z,7.80
2023-03-20T21:53:14.735Z,7.80
2023-03-20T22:01:46.085Z,7.90
2023-03-20T22:12:53.589Z,7.90
2023-03-20T22:15:34.078Z,7.90
2023-03-20T22:21:21.863Z,7.90
2023-03-20T22:32:27.824Z,8.00
2023-03-20T22:43:05.871Z,7.90
2023-03-20T22:45:42.588Z,7.90
2023-03-20T22:48:12.304Z,8.00
2023-03-20T22:50:40.269Z,8.00
2023-03-20T22:53:07.625Z,8.00
2023-03-20T22:55:34.585Z,7.90
2023-03-20T22:58:07.442Z,8.00
2023-03-20T23:00:36.702Z,8.00
2023-03-20T23:03:37.702Z,8.00
2023-03-20T23:05:52.868Z,8.00
2023-03-20T23:08:20.320Z,8.10
2023-03-20T23:10:50.124Z,8.10
2023-03-20T23:13:20.393Z,8.00
2023-03-20T23:15:47.804Z,8.00
2023-03-20T23:18:15.472Z,8.00
2023-03-20T23:20:43.258Z,8.00
2023-03-20T23:23:10.304Z,8.00
2023-03-20T23:25:39.720Z,8.10
2023-03-20T23:28:08.660Z,8.00
2023-03-20T23:31:07.629Z,8.10
2023-03-20T23:33:23.472Z,8.10
2023-03-20T23:36:01.102Z,8.10
2023-03-20T23:38:36.181Z,8.10
2023-03-20T23:41:03.137Z,8.10
2023-03-20T23:43:30.015Z,8.10
2023-03-20T23:45:56.891Z,8.20
2023-03-20T23:48:24.251Z,8.10
2023-03-20T23:50:53.573Z,8.10
2023-03-20T23:53:21.474Z,8.10
2023-03-20T23:55:51.802Z,8.10
2023-03-20T23:58:19.517Z,8.20
